Ah Gwah Ching, MN

9:51 PM CDT on August 23, 2016 (GMT -0500)
APRSWXNET | | Change Station

Elev 1483 ft 47.09 °N, 94.58 °W | Updated 24 minutes ago

Scattered Clouds
Scattered Clouds
74 °F
Feels Like 73 °F
N
0
Wind Variable Wind from SSW
Gusts 7.0 mph

Today
High -- | Low -- °F
--% Chance of Precip.
Yesterday
High -- | Low -- °F
Precip. -- in
Pressure 29.83 in
Visibility 10.0 miles
Clouds Scattered Clouds 2400 ft
Heat Index 73 °F
Dew Point 70 °F
Humidity 87%
Rainfall in
Snow Depth Not available.
6:26 AM 8:14 PM
Waning Gibbous, 62% visible
METAR KXVG 240236Z AUTO 16006KT 10SM SCT024 22/21 A2983 RMK AO2
Pressure 29.83 in
Visibility 10.0 miles
Clouds Scattered Clouds 2400 ft
Heat Index 73 °F
Dew Point 70 °F
Humidity 87%
Rainfall in
Snow Depth Not available.
6:26 AM 8:14 PM
Waning Gibbous, 62% visible
METAR KXVG 240236Z AUTO 16006KT 10SM SCT024 22/21 A2983 RMK AO2

10-Day Weather Forecast

Almanac

Astronomy

Aug. 23, 2016 Rise Set
Actual Time
Civil Twilight
Nautical Twilight
Astronomical Twilight
Moon
Length of Visible Light
Length of Day
Tomorrow will be .
, % of the Moon is Illuminated

Today's Extremes

State Highs State Lows

Community

WunderPhotos

Upload Photos

1,934,533 photos uploaded!

WunderBlog® & News

Nearby

Air Quality

  Air Quality AQ Index Pollutant
Not available.

Snow Depth

Station Depth Elevation

Earthquake Activity

City Distance Mag. Time & Date
Minimum magnitude displayed is 2.5.

Coastal Water Temperatures

Place Temperature

Stations

Nearby Weather Stations

Station Location Temp. Windchill Dew Point Humidity Wind Precip. Elev Updated Type
                   

Watches & Warnings

There are currently no watches in effect.